Nason, IL (62866)

5:09 PM CST on November 26, 2014 (GMT -0600)
Northeast of Benton | Change Station
CLOSE
Current Station
Personal Weather Station
Location: Benton, IL
Elevation: 433 ft
Nearby Weather Stations
Active Advisory: Special Statement

Elev 433 ft 38.01 °N, 88.90 °W | Updated 4 minutes ago

Snow
Snow
33.5 °F
Feels Like 34 °F
N
0.0
Wind Variable Wind from SSE
Gusts 0.0 mph

Today
High -- | Low -- °F
--% Chance of Precip.
Yesterday
High -- | Low -- °F
Precip. -- in
6:48 AM 4:37 PM
Waxing Crescent, 23% visible
Pressure 30.04 in
Visibility 0.5 miles
Clouds Overcast 600 ft
Windchill 34 °F
Dew Point 32 °F
Humidity 93%
Rainfall 0.04 in
Snow Depth Not available.
UV 0 out of 12
Pollen .20 out of 12
Air Quality Not available.
Flu Activity Not available.
METAR KMVN 262255Z AUTO 00000KT 1/2SM OVC006 00/M02 A3004 RMK AO1

More Conditions Fewer Conditions

Pressure 30.04 in
Visibility 0.5 miles
Clouds Overcast 600 ft
Windchill 34 °F
Dew Point 32 °F
Humidity 93%
Rainfall 0.04 in
Snow Depth Not available.
UV 0 out of 12
Pollen .20 out of 12
Air Quality Not available.
Flu Activity Not available.
METAR KMVN 262255Z AUTO 00000KT 1/2SM OVC006 00/M02 A3004 RMK AO1

More Conditions Fewer Conditions

10-Day Weather Forecast

Almanac

Astronomy

Nov. 26, 2014 Rise Set
Actual Time
Civil Twilight
Nautical Twilight
Astronomical Twilight
Moon
Length of Visible Light
Length of Day
Tomorrow will be .
, % of the Moon is Illuminated

Today's Extremes

State Highs State Lows

Community

WunderPhotos

Upload Photos

1,773,913 photos uploaded!

WunderBlogs® & News

Nearby

Air Quality

  Air Quality AQ Index Pollutant
Not available.

Snow Depth

Station Depth Elevation

Earthquake Activity

City Distance Mag. Time & Date
Minimum magnitude displayed is 2.5.

Coastal Water Temperatures

Place Temperature

Nearby Weather Stations